createdAt,value
2018-12-31T00:00:44.955Z,9.50
2018-12-31T00:03:11.431Z,9.50
2018-12-31T00:05:37.883Z,9.40
2018-12-31T00:08:04.339Z,9.20
2018-12-31T00:10:30.815Z,9.40
2018-12-31T00:12:57.264Z,9.30
2018-12-31T00:15:23.933Z,9.40
2018-12-31T00:17:50.380Z,9.40
2018-12-31T00:20:16.746Z,9.40
2018-12-31T00:22:43.103Z,9.30
2018-12-31T00:25:09.476Z,9.50
2018-12-31T00:27:35.920Z,9.50
2018-12-31T00:30:05.479Z,9.50
2018-12-31T00:32:31.934Z,9.20
2018-12-31T00:34:58.451Z,9.50
2018-12-31T00:37:24.899Z,8.90
2018-12-31T00:39:51.439Z,9.50
2018-12-31T00:42:17.860Z,9.50
2018-12-31T00:44:44.310Z,9.80
2018-12-31T00:47:10.787Z,9.50
2018-12-31T00:49:37.235Z,9.50
2018-12-31T00:52:03.709Z,9.50
2018-12-31T00:54:30.163Z,9.50
2018-12-31T00:56:56.642Z,9.50
2018-12-31T00:59:23.081Z,9.50
2018-12-31T01:01:49.721Z,9.50
2018-12-31T01:04:16.272Z,9.40
2018-12-31T01:06:43.001Z,9.30
2018-12-31T01:09:09.468Z,9.50
2018-12-31T01:11:36.019Z,9.50
2018-12-31T01:14:02.683Z,9.50
2018-12-31T01:16:29.396Z,9.60
2018-12-31T01:18:55.961Z,9.50
2018-12-31T01:21:22.425Z,9.80
2018-12-31T01:23:48.879Z,9.50
2018-12-31T01:26:15.329Z,9.40
2018-12-31T01:28:41.804Z,9.40
2018-12-31T01:31:08.258Z,9.30
2018-12-31T01:33:34.743Z,9.50
2018-12-31T01:36:01.211Z,9.60
2018-12-31T01:38:27.579Z,9.30
2018-12-31T01:40:54.050Z,9.50
2018-12-31T01:43:20.530Z,9.60
2018-12-31T01:45:47.932Z,9.50
2018-12-31T01:48:14.400Z,9.50
2018-12-31T01:50:40.865Z,9.30
2018-12-31T01:53:07.305Z,9.30
2018-12-31T01:55:33.771Z,9.50
2018-12-31T01:58:00.233Z,9.60
2018-12-31T02:00:26.787Z,9.40
2018-12-31T02:02:53.196Z,9.50
2018-12-31T02:05:19.595Z,9.50
2018-12-31T02:07:46.068Z,9.40
2018-12-31T02:10:12.559Z,9.40
2018-12-31T02:12:39.025Z,9.50
2018-12-31T02:15:05.997Z,9.50
2018-12-31T02:17:32.576Z,9.50
2018-12-31T02:19:59.159Z,9.50
2018-12-31T02:22:25.804Z,9.50
2018-12-31T02:24:52.441Z,9.80
2018-12-31T02:27:18.904Z,9.40
2018-12-31T02:29:45.472Z,9.50
2018-12-31T02:32:12.219Z,9.50
2018-12-31T02:34:38.567Z,9.50
2018-12-31T02:37:05.046Z,9.40
2018-12-31T02:39:31.580Z,9.40
2018-12-31T02:41:58.045Z,9.50
2018-12-31T02:44:24.505Z,9.50
2018-12-31T02:46:50.960Z,9.40
2018-12-31T02:49:17.413Z,9.50
2018-12-31T02:51:43.867Z,9.50
2018-12-31T02:54:10.320Z,9.50
2018-12-31T02:56:36.685Z,9.40
2018-12-31T02:59:03.240Z,9.30
2018-12-31T03:01:29.808Z,9.50
2018-12-31T03:03:56.388Z,9.50
2018-12-31T03:06:23.026Z,9.10
2018-12-31T03:08:49.501Z,9.40
2018-12-31T03:11:16.039Z,9.40
2018-12-31T03:13:42.426Z,9.80
2018-12-31T03:16:08.871Z,9.80
2018-12-31T03:18:35.444Z,9.30
2018-12-31T03:21:01.892Z,9.50
2018-12-31T03:23:28.369Z,9.50
2018-12-31T03:25:55.091Z,9.50
2018-12-31T03:28:21.661Z,9.50
2018-12-31T03:30:48.121Z,9.40
2018-12-31T03:33:14.699Z,9.40
2018-12-31T03:35:41.314Z,9.50
2018-12-31T03:38:07.772Z,9.40
2018-12-31T03:40:34.282Z,9.30
2018-12-31T03:43:00.725Z,9.50
2018-12-31T03:45:27.387Z,9.50
2018-12-31T03:47:53.841Z,9.40
2018-12-31T03:50:20.316Z,9.50
2018-12-31T03:52:46.755Z,9.50
2018-12-31T03:55:13.131Z,9.30
2018-12-31T03:57:39.586Z,9.40
2018-12-31T04:00:06.352Z,9.30
2018-12-31T04:02:32.791Z,9.50
2018-12-31T04:04:59.176Z,9.20
2018-12-31T04:07:25.620Z,9.80
2018-12-31T04:09:52.084Z,9.70
2018-12-31T04:12:18.528Z,9.30
2018-12-31T04:14:44.900Z,9.50
2018-12-31T04:17:11.252Z,9.50
2018-12-31T04:19:37.731Z,9.50
2018-12-31T04:22:04.443Z,9.50
2018-12-31T04:24:31.005Z,9.50
2018-12-31T04:26:57.447Z,9.50
2018-12-31T04:29:23.837Z,9.50
2018-12-31T04:31:50.295Z,9.30
2018-12-31T04:34:16.735Z,9.50
2018-12-31T04:36:43.314Z,9.50
2018-12-31T04:39:09.667Z,9.30
2018-12-31T04:41:36.141Z,9.50
2018-12-31T04:44:02.784Z,9.20
2018-12-31T04:46:29.251Z,9.70
2018-12-31T04:48:55.868Z,9.30
2018-12-31T04:51:24.428Z,9.80
2018-12-31T04:53:51.010Z,9.40
2018-12-31T04:56:17.755Z,9.80
2018-12-31T04:58:44.113Z,9.60
2018-12-31T05:01:10.576Z,9.70
2018-12-31T05:03:36.981Z,9.40
2018-12-31T05:06:03.458Z,9.80
2018-12-31T05:08:30.254Z,9.80
2018-12-31T05:10:56.725Z,9.60
2018-12-31T05:13:23.160Z,9.60
2018-12-31T05:15:49.636Z,9.70
2018-12-31T05:18:15.988Z,9.80
2018-12-31T05:20:42.430Z,9.30
2018-12-31T05:23:08.904Z,9.80
2018-12-31T05:25:35.343Z,9.70
2018-12-31T05:28:01.735Z,9.80
2018-12-31T05:30:28.192Z,9.70
2018-12-31T05:32:54.645Z,9.90
2018-12-31T05:35:21.100Z,9.90
2018-12-31T05:37:47.465Z,9.70
2018-12-31T05:40:13.912Z,9.70
2018-12-31T05:42:40.378Z,9.60
2018-12-31T05:45:06.840Z,9.70
2018-12-31T05:47:33.674Z,9.80
2018-12-31T05:50:00.042Z,9.60
2018-12-31T05:52:26.522Z,9.80
2018-12-31T05:54:52.879Z,9.90
2018-12-31T05:57:19.620Z,9.80
2018-12-31T05:59:46.444Z,9.90
2018-12-31T06:02:13.204Z,9.90
2018-12-31T06:04:39.662Z,9.90
2018-12-31T06:07:06.008Z,9.80
2018-12-31T06:09:32.478Z,9.90
2018-12-31T06:11:58.913Z,9.90
2018-12-31T06:14:25.601Z,9.80
2018-12-31T06:16:52.016Z,9.90
2018-12-31T06:19:18.470Z,9.80
2018-12-31T06:21:44.836Z,9.80
2018-12-31T06:24:11.317Z,9.60
2018-12-31T06:26:37.752Z,9.60
2018-12-31T06:29:04.143Z,9.70
2018-12-31T06:31:30.590Z,9.60
2018-12-31T06:33:56.975Z,9.80
2018-12-31T06:36:23.408Z,9.60
2018-12-31T06:38:49.975Z,9.80
2018-12-31T06:41:16.432Z,9.90
2018-12-31T06:43:42.902Z,9.80
2018-12-31T06:46:09.348Z,9.90
2018-12-31T06:48:35.783Z,9.80
2018-12-31T06:51:02.252Z,9.70
2018-12-31T06:53:28.597Z,10.10
2018-12-31T06:55:55.184Z,10.10
2018-12-31T06:58:21.580Z,10.30
2018-12-31T07:00:48.032Z,10.00
2018-12-31T07:03:14.482Z,10.20
2018-12-31T07:05:40.934Z,9.70
2018-12-31T07:08:07.275Z,10.20
2018-12-31T07:10:33.735Z,9.90
2018-12-31T07:13:00.192Z,10.10
2018-12-31T07:15:26.918Z,10.10
2018-12-31T07:17:53.362Z,10.10
2018-12-31T07:20:19.739Z,10.20
2018-12-31T07:22:46.187Z,10.10
2018-12-31T07:25:12.655Z,10.30
2018-12-31T07:27:39.408Z,10.10
2018-12-31T07:30:06.090Z,10.30
2018-12-31T07:32:32.713Z,10.20
2018-12-31T07:34:59.180Z,10.20
2018-12-31T07:37:25.631Z,10.40
2018-12-31T07:39:52.080Z,10.00
2018-12-31T07:42:18.554Z,10.10
2018-12-31T07:44:45.028Z,10.10
2018-12-31T07:47:11.476Z,10.10
2018-12-31T07:49:37.824Z,10.20
2018-12-31T07:52:04.293Z,10.10
2018-12-31T07:54:30.742Z,10.20
2018-12-31T07:56:57.220Z,10.20
2018-12-31T07:59:23.765Z,10.20
2018-12-31T08:01:50.231Z,10.20
2018-12-31T08:04:16.584Z,10.30
2018-12-31T08:06:43.159Z,10.20
2018-12-31T08:09:09.604Z,10.20
2018-12-31T08:11:36.062Z,10.20
2018-12-31T08:14:02.508Z,10.30
2018-12-31T08:16:28.883Z,10.20
2018-12-31T08:18:55.500Z,10.20
2018-12-31T08:21:21.976Z,9.90
2018-12-31T08:23:48.516Z,10.20
2018-12-31T08:26:15.095Z,10.20
2018-12-31T08:28:41.672Z,10.20
2018-12-31T08:31:08.111Z,10.00
2018-12-31T08:33:34.578Z,10.10
2018-12-31T08:36:01.123Z,10.10
2018-12-31T08:38:27.540Z,10.20
2018-12-31T08:40:53.972Z,10.20
2018-12-31T08:43:20.336Z,10.20
2018-12-31T08:45:46.688Z,10.20
2018-12-31T08:48:13.160Z,10.30
2018-12-31T08:50:39.614Z,10.20
2018-12-31T08:53:05.983Z,10.30
2018-12-31T08:55:32.344Z,10.20
2018-12-31T08:57:58.803Z,10.50
2018-12-31T09:00:25.157Z,10.50
2018-12-31T09:02:51.697Z,10.70
2018-12-31T09:05:18.168Z,10.60
2018-12-31T09:07:44.627Z,10.40
2018-12-31T09:10:10.993Z,10.60
2018-12-31T09:12:37.460Z,10.40
2018-12-31T09:15:04.211Z,10.60
2018-12-31T09:17:30.661Z,10.40
2018-12-31T09:19:57.133Z,10.50
2018-12-31T09:22:23.572Z,10.60
2018-12-31T09:24:50.211Z,10.40
2018-12-31T09:27:16.748Z,10.60
2018-12-31T09:29:43.156Z,10.70
2018-12-31T09:32:09.604Z,10.50
2018-12-31T09:34:35.971Z,10.40
2018-12-31T09:37:02.529Z,10.60
2018-12-31T09:39:29.012Z,10.70
2018-12-31T09:41:55.552Z,10.60
2018-12-31T09:44:22.043Z,10.60
2018-12-31T09:46:48.739Z,10.60
2018-12-31T09:49:15.094Z,10.60
2018-12-31T09:51:41.464Z,10.50
2018-12-31T09:54:07.907Z,10.50
2018-12-31T09:56:34.519Z,10.50
2018-12-31T09:59:01.038Z,10.40
2018-12-31T10:01:27.677Z,10.50
2018-12-31T10:03:54.150Z,10.60
2018-12-31T10:06:20.612Z,10.70
2018-12-31T10:08:49.415Z,10.70
2018-12-31T10:11:15.430Z,10.90
2018-12-31T10:13:41.893Z,10.80
2018-12-31T10:16:08.356Z,10.50
2018-12-31T10:18:35.072Z,10.50
2018-12-31T10:21:01.536Z,10.70
2018-12-31T10:23:28.016Z,10.50
2018-12-31T10:25:55.554Z,10.70
2018-12-31T10:28:22.330Z,10.50
2018-12-31T10:30:48.967Z,10.60
2018-12-31T10:33:15.440Z,10.80
2018-12-31T10:35:41.884Z,10.50
2018-12-31T10:38:08.614Z,10.50
2018-12-31T10:40:35.059Z,10.50
2018-12-31T10:43:01.527Z,10.70
2018-12-31T10:45:27.887Z,10.60
2018-12-31T10:47:54.347Z,10.50
2018-12-31T10:50:20.712Z,10.90
2018-12-31T10:52:47.183Z,10.60
2018-12-31T10:55:13.640Z,10.60
2018-12-31T10:57:40.110Z,10.90
2018-12-31T11:00:07.467Z,11.00
2018-12-31T11:02:34.220Z,10.50
2018-12-31T11:05:00.676Z,10.80
2018-12-31T11:07:27.060Z,10.40
2018-12-31T11:09:53.513Z,10.90
2018-12-31T11:12:19.956Z,10.60
2018-12-31T11:14:46.323Z,10.50
2018-12-31T11:17:12.685Z,10.50
2018-12-31T11:19:39.185Z,10.60
2018-12-31T11:22:05.626Z,10.80
2018-12-31T11:24:32.120Z,11.10
2018-12-31T11:26:58.579Z,11.00
2018-12-31T11:29:24.954Z,11.00
2018-12-31T11:31:51.416Z,10.90
2018-12-31T11:34:17.875Z,10.70
2018-12-31T11:36:44.232Z,10.80
2018-12-31T11:39:10.725Z,11.00
2018-12-31T11:41:37.268Z,11.00
2018-12-31T11:44:03.751Z,10.90
2018-12-31T11:46:30.455Z,10.90
2018-12-31T11:48:56.928Z,10.80
2018-12-31T11:51:23.557Z,10.80
2018-12-31T11:53:50.040Z,11.00
2018-12-31T11:56:16.475Z,10.40
2018-12-31T11:58:42.948Z,10.70
2018-12-31T12:01:09.500Z,10.60
2018-12-31T12:03:35.971Z,11.00
2018-12-31T12:06:02.787Z,10.70
2018-12-31T12:08:29.264Z,10.80
2018-12-31T12:10:55.813Z,10.50
2018-12-31T12:13:22.308Z,10.70
2018-12-31T12:15:48.856Z,10.90
2018-12-31T12:18:15.566Z,10.90
2018-12-31T12:20:42.349Z,10.40
2018-12-31T12:23:08.795Z,10.60
2018-12-31T12:25:38.224Z,10.50
2018-12-31T12:28:05.258Z,10.70
2018-12-31T12:30:31.769Z,10.80
2018-12-31T12:32:58.223Z,11.00
2018-12-31T12:35:24.621Z,10.90
2018-12-31T12:37:51.055Z,10.90
2018-12-31T12:40:17.536Z,10.90
2018-12-31T12:42:44.091Z,10.90
2018-12-31T12:45:10.546Z,10.90
2018-12-31T12:47:37.108Z,10.70
2018-12-31T12:50:04.183Z,10.90
2018-12-31T12:52:30.668Z,10.90
2018-12-31T12:54:57.142Z,10.80
2018-12-31T12:57:23.595Z,11.00
2018-12-31T12:59:50.352Z,10.90
2018-12-31T13:02:16.809Z,11.00
2018-12-31T13:04:43.267Z,10.90
2018-12-31T13:07:09.736Z,10.90
2018-12-31T13:09:36.185Z,10.90
2018-12-31T13:12:02.860Z,10.90
2018-12-31T13:14:29.331Z,10.50
2018-12-31T13:16:56.004Z,10.80
2018-12-31T13:19:22.538Z,10.90
2018-12-31T13:21:48.922Z,11.10
2018-12-31T13:24:15.468Z,10.90
2018-12-31T13:26:43.697Z,11.00
2018-12-31T13:29:10.219Z,10.90
2018-12-31T13:31:36.995Z,11.00
2018-12-31T13:34:03.557Z,10.90
2018-12-31T13:36:30.289Z,10.90
2018-12-31T13:38:56.784Z,11.00
2018-12-31T13:41:23.434Z,10.90
2018-12-31T13:43:50.000Z,10.90
2018-12-31T13:46:16.459Z,10.90
2018-12-31T13:48:43.219Z,11.00
2018-12-31T13:51:09.865Z,10.70
2018-12-31T13:53:36.549Z,10.70
2018-12-31T13:56:03.201Z,11.00
2018-12-31T13:58:31.567Z,11.00
2018-12-31T14:00:58.111Z,11.00
2018-12-31T14:03:24.616Z,10.80
2018-12-31T14:05:51.084Z,10.80
2018-12-31T14:08:17.555Z,10.80
2018-12-31T14:10:44.205Z,11.10
2018-12-31T14:13:10.691Z,10.90
2018-12-31T14:15:37.237Z,10.90
2018-12-31T14:18:04.051Z,10.90
2018-12-31T14:20:30.516Z,10.70
2018-12-31T14:22:58.867Z,10.90
2018-12-31T14:25:25.539Z,10.90
2018-12-31T14:27:51.999Z,10.60
2018-12-31T14:30:18.561Z,10.70
2018-12-31T14:32:47.940Z,11.00
2018-12-31T14:35:14.914Z,10.80
2018-12-31T14:37:41.602Z,10.40
2018-12-31T14:40:10.223Z,10.90
2018-12-31T14:42:36.677Z,10.90
2018-12-31T14:45:04.256Z,10.50
2018-12-31T14:47:30.704Z,10.90
2018-12-31T14:49:57.473Z,10.90
2018-12-31T14:52:23.917Z,10.80
2018-12-31T14:54:50.396Z,11.00
2018-12-31T14:57:16.848Z,10.50
2018-12-31T14:59:43.443Z,10.50
2018-12-31T15:02:09.987Z,10.80
2018-12-31T15:04:36.800Z,11.00
2018-12-31T15:07:03.391Z,10.90
2018-12-31T15:09:29.828Z,11.00
2018-12-31T15:11:56.563Z,10.90
2018-12-31T15:14:23.588Z,10.90
2018-12-31T15:16:50.595Z,10.90
2018-12-31T15:19:17.308Z,10.90
2018-12-31T15:21:44.158Z,10.60
2018-12-31T15:24:11.067Z,11.00
2018-12-31T15:26:37.669Z,10.60
2018-12-31T15:29:04.400Z,10.50
2018-12-31T15:31:30.990Z,10.60
2018-12-31T15:33:57.543Z,10.60
2018-12-31T15:36:24.116Z,10.50
2018-12-31T15:38:50.795Z,10.70
2018-12-31T15:41:17.259Z,10.90
2018-12-31T15:43:43.719Z,10.80
2018-12-31T15:46:10.159Z,10.40
2018-12-31T15:48:36.630Z,10.60
2018-12-31T15:51:03.460Z,10.50
2018-12-31T15:53:30.235Z,10.50
2018-12-31T15:55:56.705Z,10.60
2018-12-31T15:58:23.180Z,10.50
2018-12-31T16:00:49.639Z,10.50
2018-12-31T16:03:16.107Z,10.40
2018-12-31T16:05:42.611Z,10.90
2018-12-31T16:08:09.391Z,10.50
2018-12-31T16:10:35.840Z,10.70
2018-12-31T16:13:02.727Z,10.60
2018-12-31T16:15:29.213Z,10.40
2018-12-31T16:17:55.930Z,10.50
2018-12-31T16:20:22.396Z,10.50
2018-12-31T16:22:49.439Z,10.40
2018-12-31T16:25:16.212Z,10.60
2018-12-31T16:27:44.822Z,10.60
2018-12-31T16:30:11.552Z,10.60
2018-12-31T16:32:38.156Z,10.50
2018-12-31T16:35:04.940Z,10.50
2018-12-31T16:37:31.705Z,10.40
2018-12-31T16:39:58.632Z,10.50
2018-12-31T16:42:25.188Z,10.50
2018-12-31T16:44:51.669Z,10.40
2018-12-31T16:47:18.125Z,10.50
2018-12-31T16:49:44.588Z,10.50
2018-12-31T16:52:11.049Z,10.50
2018-12-31T16:54:37.767Z,10.50
2018-12-31T16:57:05.865Z,10.50
2018-12-31T16:59:32.356Z,10.20
2018-12-31T17:01:59.183Z,10.90
2018-12-31T17:04:25.620Z,10.60
2018-12-31T17:06:52.200Z,10.60
2018-12-31T17:09:18.665Z,10.60
2018-12-31T17:11:45.150Z,10.50
2018-12-31T17:14:15.172Z,10.50
2018-12-31T17:16:41.581Z,10.50
2018-12-31T17:19:11.051Z,10.50
2018-12-31T17:21:37.543Z,10.40
2018-12-31T17:24:04.028Z,10.50
2018-12-31T17:26:30.751Z,10.20
2018-12-31T17:28:57.228Z,10.60
2018-12-31T17:31:23.668Z,10.50
2018-12-31T17:33:50.223Z,10.60
2018-12-31T17:36:17.723Z,10.50
2018-12-31T17:38:44.437Z,10.40
2018-12-31T17:41:10.889Z,10.30
2018-12-31T17:43:37.372Z,10.40
2018-12-31T17:46:03.832Z,10.10
2018-12-31T17:48:30.303Z,10.20
2018-12-31T17:50:56.859Z,10.50
2018-12-31T17:53:23.635Z,10.40
2018-12-31T17:55:50.080Z,10.50
2018-12-31T17:58:16.584Z,10.40
2018-12-31T18:00:43.018Z,10.50
2018-12-31T18:03:09.523Z,10.40
2018-12-31T18:05:35.964Z,10.60
2018-12-31T18:08:04.828Z,10.50
2018-12-31T18:10:31.129Z,10.50
2018-12-31T18:12:57.632Z,10.40
2018-12-31T18:15:24.038Z,10.50
2018-12-31T18:17:51.727Z,10.50
2018-12-31T18:20:18.199Z,10.40
2018-12-31T18:22:44.762Z,10.50
2018-12-31T18:25:11.355Z,10.40
2018-12-31T18:27:37.807Z,10.30
2018-12-31T18:30:06.469Z,10.50
2018-12-31T18:32:33.220Z,10.20
2018-12-31T18:35:05.912Z,10.00
2018-12-31T18:37:32.355Z,10.40
2018-12-31T18:39:58.843Z,10.60
2018-12-31T18:42:25.356Z,10.50
2018-12-31T18:44:51.920Z,10.30
2018-12-31T18:47:18.467Z,10.40
2018-12-31T18:49:44.928Z,10.50
2018-12-31T18:52:11.379Z,10.40
2018-12-31T18:54:38.023Z,10.50
2018-12-31T18:57:04.840Z,10.50
2018-12-31T18:59:31.407Z,10.50
2018-12-31T19:01:57.887Z,10.50
2018-12-31T19:04:24.452Z,10.30
2018-12-31T19:06:51.096Z,10.40
2018-12-31T19:09:17.582Z,10.00
2018-12-31T19:11:44.034Z,10.20
2018-12-31T19:14:10.473Z,10.20
2018-12-31T19:16:37.080Z,10.10
2018-12-31T19:19:03.470Z,10.30
2018-12-31T19:21:29.934Z,10.20
2018-12-31T19:23:56.754Z,10.60
2018-12-31T19:26:23.511Z,10.30
2018-12-31T19:28:50.125Z,10.20
2018-12-31T19:31:16.599Z,10.10
2018-12-31T19:33:44.981Z,10.20
2018-12-31T19:36:11.463Z,10.20
2018-12-31T19:38:37.946Z,10.10
2018-12-31T19:41:10.107Z,10.10
2018-12-31T19:43:36.595Z,10.00
2018-12-31T19:46:03.091Z,9.90
2018-12-31T19:48:29.551Z,10.10
2018-12-31T19:50:56.017Z,10.10
2018-12-31T19:53:22.491Z,10.10
2018-12-31T19:55:48.931Z,10.10
2018-12-31T19:58:15.408Z,10.00
2018-12-31T20:00:41.961Z,10.20
2018-12-31T20:03:08.440Z,9.70
2018-12-31T20:05:34.897Z,10.10
2018-12-31T20:08:01.363Z,10.20
2018-12-31T20:10:27.917Z,10.10
2018-12-31T20:12:54.650Z,10.10
2018-12-31T20:15:21.100Z,10.10
2018-12-31T20:17:49.420Z,10.20
2018-12-31T20:20:16.096Z,10.30
2018-12-31T20:22:42.828Z,9.90
2018-12-31T20:25:09.420Z,10.10
2018-12-31T20:27:35.869Z,10.20
2018-12-31T20:30:03.391Z,9.60
2018-12-31T20:32:29.934Z,10.00
2018-12-31T20:34:56.516Z,10.10
2018-12-31T20:37:22.957Z,10.10
2018-12-31T20:39:49.511Z,9.90
2018-12-31T20:42:15.984Z,9.80
2018-12-31T20:44:42.431Z,9.60
2018-12-31T20:47:08.908Z,9.80
2018-12-31T20:49:35.353Z,9.60
2018-12-31T20:52:01.922Z,9.80
2018-12-31T20:54:28.388Z,9.60
2018-12-31T20:56:54.848Z,9.90
2018-12-31T20:59:21.392Z,9.80
2018-12-31T21:01:47.847Z,9.60
2018-12-31T21:04:14.403Z,9.80
2018-12-31T21:06:41.129Z,9.90
2018-12-31T21:09:07.573Z,10.10
2018-12-31T21:11:34.324Z,10.10
2018-12-31T21:14:00.999Z,10.10
2018-12-31T21:16:27.440Z,10.10
2018-12-31T21:18:53.917Z,10.10
2018-12-31T21:21:20.361Z,10.10
2018-12-31T21:23:46.851Z,10.10
2018-12-31T21:26:13.299Z,10.10
2018-12-31T21:28:39.790Z,10.10
2018-12-31T21:31:06.336Z,10.20
2018-12-31T21:33:32.907Z,10.00
2018-12-31T21:35:59.364Z,10.00
2018-12-31T21:38:26.091Z,10.10
2018-12-31T21:40:52.680Z,10.10
2018-12-31T21:43:19.622Z,9.90
2018-12-31T21:45:46.183Z,9.90
2018-12-31T21:48:12.632Z,9.90
2018-12-31T21:50:39.360Z,9.60
2018-12-31T21:53:06.090Z,9.80
2018-12-31T21:55:32.657Z,10.00
2018-12-31T21:58:01.841Z,9.60
2018-12-31T22:00:28.315Z,9.80
2018-12-31T22:02:57.215Z,9.70
2018-12-31T22:05:23.407Z,9.50
2018-12-31T22:07:49.975Z,9.80
2018-12-31T22:10:16.531Z,9.50
2018-12-31T22:12:42.980Z,9.80
2018-12-31T22:15:09.454Z,9.90
2018-12-31T22:17:35.903Z,9.80
2018-12-31T22:20:04.973Z,9.70
2018-12-31T22:22:31.440Z,10.10
2018-12-31T22:24:57.878Z,10.00
2018-12-31T22:27:24.253Z,10.20
2018-12-31T22:29:51.099Z,10.00
2018-12-31T22:32:17.680Z,10.00
2018-12-31T22:34:44.219Z,9.90
2018-12-31T22:37:10.793Z,9.80
2018-12-31T22:39:37.499Z,9.60
2018-12-31T22:42:04.434Z,9.80
2018-12-31T22:44:31.415Z,9.70
2018-12-31T22:46:57.952Z,10.10
2018-12-31T22:49:24.400Z,9.60
2018-12-31T22:51:50.872Z,10.10
2018-12-31T22:54:17.368Z,10.20
2018-12-31T22:56:43.795Z,9.60
2018-12-31T22:59:10.461Z,9.80
2018-12-31T23:01:36.928Z,9.60
2018-12-31T23:04:03.408Z,10.10
2018-12-31T23:06:29.865Z,10.10
2018-12-31T23:08:56.327Z,9.80
2018-12-31T23:11:22.771Z,9.80
2018-12-31T23:13:49.235Z,9.60
2018-12-31T23:16:15.894Z,10.00
2018-12-31T23:18:42.376Z,10.00
2018-12-31T23:21:09.071Z,10.10
2018-12-31T23:23:35.560Z,9.60
2018-12-31T23:26:02.022Z,10.10
2018-12-31T23:28:28.482Z,9.90
2018-12-31T23:30:55.336Z,10.10
2018-12-31T23:33:21.803Z,9.80
2018-12-31T23:35:48.270Z,9.60
2018-12-31T23:38:14.976Z,9.70
2018-12-31T23:40:41.798Z,9.80
2018-12-31T23:43:08.283Z,9.80
2018-12-31T23:45:35.128Z,9.60
2018-12-31T23:48:01.585Z,9.80
2018-12-31T23:50:28.031Z,9.70
2018-12-31T23:52:54.512Z,9.60
2018-12-31T23:55:21.066Z,9.70
2018-12-31T23:57:47.544Z,9.80
